createdAt,value
2022-09-20T00:02:17.905Z,9.32
2022-09-20T00:04:50.496Z,9.31
2022-09-20T00:07:20.941Z,9.33
2022-09-20T00:09:51.246Z,9.34
2022-09-20T00:12:21.469Z,9.36
2022-09-20T00:14:51.772Z,9.37
2022-09-20T00:17:24.498Z,9.37
2022-09-20T00:19:54.827Z,9.37
2022-09-20T00:22:25.134Z,9.35
2022-09-20T00:24:55.449Z,9.34
2022-09-20T00:27:28.110Z,9.32
2022-09-20T00:29:58.802Z,9.31
2022-09-20T00:32:29.142Z,9.31
2022-09-20T00:35:11.644Z,9.31
2022-09-20T00:37:44.164Z,9.30
2022-09-20T00:40:18.391Z,9.29
2022-09-20T00:42:49.075Z,9.29
2022-09-20T00:45:23.576Z,9.27
2022-09-20T00:47:58.160Z,9.27
2022-09-20T00:50:34.955Z,9.27
2022-09-20T00:53:10.582Z,9.30
2022-09-20T00:55:45.661Z,9.28
2022-09-20T00:58:18.408Z,9.28
2022-09-20T01:00:50.843Z,9.27
2022-09-20T01:03:23.325Z,9.27
2022-09-20T01:05:55.971Z,9.26
2022-09-20T01:08:26.547Z,9.25
2022-09-20T01:10:56.948Z,9.25
2022-09-20T01:13:27.339Z,9.24
2022-09-20T01:16:00.577Z,9.22
2022-09-20T01:18:33.106Z,9.21
2022-09-20T01:21:05.023Z,9.19
2022-09-20T01:23:49.960Z,9.17
2022-09-20T01:26:54.237Z,9.15
2022-09-20T01:29:42.645Z,9.14
2022-09-20T01:32:17.775Z,9.14
2022-09-20T01:34:50.973Z,9.14
2022-09-20T01:37:27.953Z,9.14
2022-09-20T01:40:03.436Z,9.15
2022-09-20T01:42:38.019Z,9.15
2022-09-20T01:45:17.784Z,9.15
2022-09-20T01:47:57.548Z,9.16
2022-09-20T01:50:38.649Z,9.16
2022-09-20T01:53:36.554Z,9.18
2022-09-20T01:56:49.315Z,9.19
2022-09-20T01:59:41.732Z,9.21
2022-09-20T02:02:34.924Z,9.21
2022-09-20T02:05:28.379Z,9.20
2022-09-20T02:08:20.962Z,9.19
2022-09-20T02:11:13.426Z,9.17
2022-09-20T02:14:12.056Z,9.16
2022-09-20T02:16:54.499Z,9.15
2022-09-20T02:19:42.450Z,9.14
2022-09-20T02:22:28.157Z,9.14
2022-09-20T02:25:09.884Z,9.14
2022-09-20T02:27:54.144Z,9.15
2022-09-20T02:30:36.428Z,9.15
2022-09-20T02:33:22.535Z,9.14
2022-09-20T02:36:15.114Z,9.13
2022-09-20T02:39:00.596Z,9.12
2022-09-20T02:42:00.299Z,9.11
2022-09-20T02:44:47.199Z,9.09
2022-09-20T02:47:28.904Z,9.08
2022-09-20T02:50:16.031Z,9.06
2022-09-20T02:52:58.316Z,9.04
2022-09-20T02:55:39.565Z,9.02
2022-09-20T02:58:27.142Z,8.98
2022-09-20T03:01:02.562Z,8.95
2022-09-20T03:03:45.538Z,8.89
2022-09-20T03:06:28.686Z,8.86
2022-09-20T03:09:08.874Z,8.84
2022-09-20T03:11:45.775Z,8.81
2022-09-20T03:14:23.240Z,8.79
2022-09-20T03:17:03.789Z,8.78
2022-09-20T03:19:48.338Z,8.79
2022-09-20T03:22:37.658Z,8.81
2022-09-20T03:25:26.345Z,8.83
2022-09-20T03:28:06.595Z,8.86
2022-09-20T03:30:52.539Z,8.87
2022-09-20T03:33:31.227Z,8.90
2022-09-20T03:36:15.176Z,8.92
2022-09-20T03:39:04.324Z,8.96
2022-09-20T03:41:56.274Z,8.98
2022-09-20T03:45:00.349Z,9.01
2022-09-20T03:47:49.074Z,9.04
2022-09-20T03:50:46.225Z,9.05
2022-09-20T03:53:51.885Z,9.06
2022-09-20T03:56:43.924Z,9.08
2022-09-20T03:59:40.708Z,9.08
2022-09-20T04:02:25.666Z,9.09
2022-09-20T04:04:59.875Z,9.10
2022-09-20T04:07:39.326Z,9.12
2022-09-20T04:10:26.770Z,9.15
2022-09-20T04:13:11.950Z,9.15
2022-09-20T04:15:51.295Z,9.17
2022-09-20T04:18:30.088Z,9.17
2022-09-20T04:21:05.054Z,9.18
2022-09-20T04:23:46.745Z,9.18
2022-09-20T04:26:23.571Z,9.19
2022-09-20T04:29:01.967Z,9.20
2022-09-20T04:31:43.095Z,9.21
2022-09-20T04:34:22.845Z,9.21
2022-09-20T04:37:19.383Z,9.23
2022-09-20T04:39:57.169Z,9.24
2022-09-20T04:42:54.660Z,9.25
2022-09-20T04:45:58.563Z,9.24
2022-09-20T04:48:53.673Z,9.25
2022-09-20T04:51:46.872Z,9.25
2022-09-20T04:54:44.714Z,9.26
2022-09-20T04:57:45.871Z,9.26
2022-09-20T05:00:20.174Z,9.26
2022-09-20T05:03:40.364Z,9.26
2022-09-20T05:06:43.375Z,9.26
2022-09-20T05:09:42.286Z,9.26
2022-09-20T05:12:28.766Z,9.26
2022-09-20T05:15:24.497Z,9.28
2022-09-20T05:18:35.182Z,9.30
2022-09-20T05:21:29.734Z,9.30
2022-09-20T05:24:12.597Z,9.32
2022-09-20T05:26:53.249Z,9.33
2022-09-20T05:29:32.869Z,9.33
2022-09-20T05:32:10.642Z,9.36
2022-09-20T05:34:47.441Z,9.37
2022-09-20T05:37:34.427Z,9.39
2022-09-20T05:40:16.407Z,9.40
2022-09-20T05:42:54.911Z,9.42
2022-09-20T05:45:43.788Z,9.43
2022-09-20T05:48:19.759Z,9.45
2022-09-20T05:51:03.097Z,9.48
2022-09-20T05:54:17.176Z,9.51
2022-09-20T05:56:53.582Z,9.58
2022-09-20T05:59:37.959Z,9.66
2022-09-20T06:02:23.830Z,9.74
2022-09-20T06:05:04.165Z,9.81
2022-09-20T06:07:52.336Z,9.88
2022-09-20T06:10:47.317Z,9.97
2022-09-20T06:13:31.999Z,10.03
2022-09-20T06:16:05.389Z,10.08
2022-09-20T06:18:42.844Z,10.13
2022-09-20T06:21:27.358Z,10.18
2022-09-20T06:24:02.380Z,10.24
2022-09-20T06:26:38.011Z,10.30
2022-09-20T06:29:13.136Z,10.34
2022-09-20T06:31:43.545Z,10.38
2022-09-20T06:34:15.932Z,10.41
2022-09-20T06:37:09.734Z,10.46
2022-09-20T06:40:04.400Z,10.52
2022-09-20T06:42:34.770Z,10.56
2022-09-20T06:45:05.800Z,10.58
2022-09-20T06:47:38.882Z,10.58
2022-09-20T06:50:15.841Z,10.62
2022-09-20T06:52:47.480Z,10.64
2022-09-20T06:55:26.041Z,10.62
2022-09-20T06:57:59.136Z,10.65
2022-09-20T07:00:29.428Z,10.70
2022-09-20T07:02:59.762Z,10.74
2022-09-20T07:05:30.050Z,10.76
2022-09-20T07:08:01.624Z,10.78
2022-09-20T07:10:32.725Z,10.81
2022-09-20T07:13:04.043Z,10.84
2022-09-20T07:15:36.431Z,10.88
2022-09-20T07:18:07.768Z,10.93
2022-09-20T07:20:38.019Z,10.97
2022-09-20T07:23:08.313Z,10.98
2022-09-20T07:25:38.961Z,11.00
2022-09-20T07:28:09.218Z,11.00
2022-09-20T07:30:39.734Z,10.99
2022-09-20T07:33:10.935Z,11.00
2022-09-20T07:35:41.802Z,11.02
2022-09-20T07:38:12.193Z,11.03
2022-09-20T07:40:45.013Z,11.04
2022-09-20T07:43:15.328Z,11.10
2022-09-20T07:45:45.673Z,11.19
2022-09-20T07:48:16.256Z,11.27
2022-09-20T07:50:53.534Z,11.37
2022-09-20T07:53:24.924Z,11.47
2022-09-20T07:56:03.293Z,11.58
2022-09-20T07:58:35.873Z,11.66
2022-09-20T08:01:09.676Z,11.77
2022-09-20T08:03:40.487Z,11.84
2022-09-20T08:06:14.551Z,11.85
2022-09-20T08:08:45.386Z,11.84
2022-09-20T08:11:19.200Z,11.87
2022-09-20T08:14:08.256Z,11.94
2022-09-20T08:16:43.730Z,12.02
2022-09-20T08:19:18.067Z,12.09
2022-09-20T08:21:48.830Z,12.17
2022-09-20T08:24:19.456Z,12.18
2022-09-20T08:26:49.897Z,12.19
2022-09-20T08:29:20.215Z,12.28
2022-09-20T08:31:50.617Z,12.34
2022-09-20T08:34:21.080Z,12.41
2022-09-20T08:36:52.727Z,12.41
2022-09-20T08:42:23.922Z,12.42
2022-09-20T08:44:59.175Z,12.43
2022-09-20T08:47:33.257Z,12.45
2022-09-20T08:50:09.965Z,12.49
2022-09-20T08:52:45.554Z,12.54
2022-09-20T08:55:18.701Z,12.70
2022-09-20T08:57:53.115Z,12.86
2022-09-20T09:00:26.335Z,12.94
2022-09-20T09:03:01.226Z,12.96
2022-09-20T09:05:38.388Z,12.98
2022-09-20T09:08:16.490Z,13.03
2022-09-20T09:10:54.719Z,13.01
2022-09-20T09:13:31.161Z,12.99
2022-09-20T09:16:07.563Z,13.00
2022-09-20T09:18:40.156Z,12.98
2022-09-20T09:21:18.488Z,13.03
2022-09-20T09:23:54.456Z,13.04
2022-09-20T09:26:25.890Z,12.98
2022-09-20T09:29:16.191Z,12.95
2022-09-20T09:31:47.334Z,12.92
2022-09-20T09:34:29.254Z,12.89
2022-09-20T09:37:00.254Z,12.88
2022-09-20T09:39:33.132Z,12.90
2022-09-20T09:42:19.956Z,12.92
2022-09-20T09:44:50.506Z,12.92
2022-09-20T09:47:29.400Z,12.83
2022-09-20T09:50:04.886Z,12.76
2022-09-20T09:52:38.031Z,12.73
2022-09-20T09:55:11.180Z,12.74
2022-09-20T09:57:55.934Z,12.78
2022-09-20T10:00:28.796Z,12.84
2022-09-20T10:03:29.907Z,12.96
2022-09-20T10:06:14.604Z,13.09
2022-09-20T10:08:59.765Z,13.19
2022-09-20T10:11:41.911Z,13.28
2022-09-20T10:14:29.539Z,13.30
2022-09-20T10:17:19.105Z,13.41
2022-09-20T10:20:05.300Z,13.52
2022-09-20T10:23:06.649Z,13.61
2022-09-20T10:25:49.141Z,13.67
2022-09-20T10:28:35.524Z,13.70
2022-09-20T10:31:23.565Z,13.73
2022-09-20T10:34:11.224Z,13.73
2022-09-20T10:36:50.647Z,13.68
2022-09-20T10:39:26.373Z,13.71
2022-09-20T10:42:26.750Z,13.79
2022-09-20T10:45:11.762Z,13.88
2022-09-20T10:47:54.499Z,13.93
2022-09-20T10:50:34.917Z,14.05
2022-09-20T10:53:30.256Z,14.19
2022-09-20T10:56:10.599Z,14.34
2022-09-20T10:58:56.971Z,14.37
2022-09-20T11:01:35.535Z,14.39
2022-09-20T11:04:23.953Z,14.48
2022-09-20T11:07:03.872Z,14.58
2022-09-20T11:09:38.942Z,14.61
2022-09-20T11:12:16.278Z,14.67
2022-09-20T11:14:53.935Z,14.73
2022-09-20T11:17:27.948Z,14.63
2022-09-20T11:20:07.417Z,14.58
2022-09-20T11:22:44.384Z,14.70
2022-09-20T11:25:23.979Z,14.75
2022-09-20T11:28:02.792Z,14.70
2022-09-20T11:30:39.299Z,14.60
2022-09-20T11:33:18.733Z,14.50
2022-09-20T11:35:54.597Z,14.39
2022-09-20T11:38:30.057Z,14.35
2022-09-20T11:41:08.761Z,14.33
2022-09-20T11:43:46.064Z,14.29
2022-09-20T11:46:24.310Z,14.32
2022-09-20T11:49:01.634Z,14.49
2022-09-20T11:52:18.891Z,14.65
2022-09-20T11:55:10.824Z,14.73
2022-09-20T11:57:42.363Z,14.72
2022-09-20T12:00:14.129Z,14.70
2022-09-20T12:02:49.790Z,14.55
2022-09-20T12:05:33.691Z,14.36
2022-09-20T12:08:06.626Z,14.26
2022-09-20T12:10:40.345Z,14.21
2022-09-20T12:13:24.441Z,14.23
2022-09-20T12:16:03.256Z,14.28
2022-09-20T12:18:47.184Z,14.39
2022-09-20T12:21:23.849Z,14.59
2022-09-20T12:24:21.274Z,14.70
2022-09-20T12:26:56.312Z,14.70
2022-09-20T12:29:54.773Z,14.66
2022-09-20T12:32:56.446Z,14.65
2022-09-20T12:36:14.900Z,14.50
2022-09-20T12:38:58.771Z,14.17
2022-09-20T12:41:45.589Z,13.88
2022-09-20T12:44:32.172Z,13.82
2022-09-20T12:47:04.849Z,14.07
2022-09-20T12:50:00.519Z,14.46
2022-09-20T12:52:57.258Z,14.57
2022-09-20T12:55:43.934Z,14.49
2022-09-20T12:58:28.099Z,14.45
2022-09-20T13:01:30.316Z,14.45
2022-09-20T13:04:32.345Z,14.39
2022-09-20T13:07:34.698Z,14.29
2022-09-20T13:10:20.490Z,14.42
2022-09-20T13:12:54.658Z,14.59
2022-09-20T13:15:25.147Z,14.76
2022-09-20T13:17:59.982Z,14.91
2022-09-20T13:20:34.938Z,15.18
2022-09-20T13:23:06.492Z,15.44
2022-09-20T13:25:42.004Z,15.72
2022-09-20T13:28:22.815Z,15.93
2022-09-20T13:31:13.202Z,16.07
2022-09-20T13:33:43.649Z,16.17
2022-09-20T13:36:14.707Z,16.18
2022-09-20T13:38:45.969Z,16.17
2022-09-20T13:41:16.459Z,16.10
2022-09-20T13:43:49.971Z,16.02
2022-09-20T13:46:25.428Z,15.98
2022-09-20T13:49:17.517Z,15.93
2022-09-20T13:51:48.984Z,15.87
2022-09-20T13:54:28.485Z,15.83
2022-09-20T13:57:02.763Z,15.82
2022-09-20T13:59:37.670Z,15.76
2022-09-20T14:02:20.688Z,15.77
2022-09-20T14:04:52.708Z,15.84
2022-09-20T14:07:25.828Z,15.92
2022-09-20T14:09:56.995Z,15.96
2022-09-20T14:12:30.376Z,15.97
2022-09-20T14:15:02.240Z,15.97
2022-09-20T14:17:38.425Z,16.00
2022-09-20T14:20:15.337Z,16.08
2022-09-20T14:22:45.032Z,16.16
2022-09-20T14:25:28.459Z,16.19
2022-09-20T14:28:18.669Z,16.18
2022-09-20T14:30:49.636Z,16.14
2022-09-20T14:33:24.400Z,16.06
2022-09-20T14:35:55.519Z,15.98
2022-09-20T14:38:28.516Z,15.90
2022-09-20T14:40:59.170Z,15.79
2022-09-20T14:43:34.238Z,15.66
2022-09-20T14:46:06.780Z,15.60
2022-09-20T14:48:41.995Z,15.51
2022-09-20T14:51:24.378Z,15.40
2022-09-20T14:54:16.010Z,15.30
2022-09-20T14:56:53.164Z,15.27
2022-09-20T14:59:27.306Z,15.22
2022-09-20T15:02:02.931Z,15.16
2022-09-20T15:04:35.497Z,15.10
2022-09-20T15:07:08.539Z,15.06
2022-09-20T15:09:38.948Z,15.02
2022-09-20T15:12:15.243Z,14.92
2022-09-20T15:14:46.100Z,14.87
2022-09-20T15:17:19.086Z,14.79
2022-09-20T15:19:53.740Z,14.65
2022-09-20T15:22:26.080Z,14.57
2022-09-20T15:24:58.920Z,14.54
2022-09-20T15:27:29.615Z,14.49
2022-09-20T15:29:59.943Z,14.43
2022-09-20T15:32:30.394Z,14.38
2022-09-20T15:35:00.768Z,14.38
2022-09-20T15:37:31.117Z,14.38
2022-09-20T15:40:02.243Z,14.35
2022-09-20T15:42:32.787Z,14.34
2022-09-20T15:45:03.497Z,14.32
2022-09-20T15:47:33.925Z,14.31
2022-09-20T15:50:04.897Z,14.28
2022-09-20T15:52:38.034Z,14.24
2022-09-20T15:55:10.717Z,14.20
2022-09-20T15:57:41.985Z,14.15
2022-09-20T16:00:15.042Z,14.11
2022-09-20T16:02:49.162Z,14.08
2022-09-20T16:05:21.916Z,14.03
2022-09-20T16:07:52.439Z,13.99
2022-09-20T16:10:22.865Z,13.94
2022-09-20T16:12:55.942Z,13.86
2022-09-20T16:15:28.513Z,13.70
2022-09-20T16:18:16.723Z,13.52
2022-09-20T16:20:48.444Z,13.35
2022-09-20T16:23:21.825Z,13.23
2022-09-20T16:26:00.214Z,13.11
2022-09-20T16:28:31.148Z,13.00
2022-09-20T16:31:01.676Z,12.90
2022-09-20T16:33:34.285Z,12.82
2022-09-20T16:36:05.109Z,12.75
2022-09-20T16:38:37.278Z,12.67
2022-09-20T16:41:08.467Z,12.57
2022-09-20T16:43:40.041Z,12.51
2022-09-20T16:46:12.098Z,12.45
2022-09-20T16:48:48.049Z,12.36
2022-09-20T16:51:20.577Z,12.28
2022-09-20T16:53:58.670Z,12.23
2022-09-20T16:56:30.733Z,12.19
2022-09-20T16:59:01.064Z,12.17
2022-09-20T17:01:32.711Z,12.12
2022-09-20T17:04:05.926Z,12.08
2022-09-20T17:06:38.385Z,12.03
2022-09-20T17:09:09.541Z,11.98
2022-09-20T17:11:41.837Z,11.93
2022-09-20T17:14:12.567Z,11.86
2022-09-20T17:16:47.596Z,11.82
2022-09-20T17:19:19.708Z,11.76
2022-09-20T17:21:52.147Z,11.70
2022-09-20T17:24:24.300Z,11.63
2022-09-20T17:26:55.650Z,11.57
2022-09-20T17:29:28.162Z,11.51
2022-09-20T17:32:00.264Z,11.46
2022-09-20T17:34:31.863Z,11.42
2022-09-20T17:37:03.512Z,11.37
2022-09-20T17:39:33.878Z,11.33
2022-09-20T17:42:04.168Z,11.31
2022-09-20T17:44:36.819Z,11.26
2022-09-20T17:47:08.240Z,11.23
2022-09-20T17:49:40.711Z,11.20
2022-09-20T17:52:11.338Z,11.15
2022-09-20T17:54:42.356Z,11.10
2022-09-20T17:57:12.676Z,11.05
2022-09-20T17:59:42.947Z,11.01
2022-09-20T18:02:13.459Z,10.96
2022-09-20T18:04:43.750Z,10.92
2022-09-20T18:07:16.399Z,10.87
2022-09-20T18:09:46.760Z,10.83
2022-09-20T18:12:20.840Z,10.77
2022-09-20T18:14:51.724Z,10.69
2022-09-20T18:17:22.171Z,10.61
2022-09-20T18:19:52.582Z,10.56
2022-09-20T18:22:22.899Z,10.51
2022-09-20T18:24:53.158Z,10.48
2022-09-20T18:27:23.561Z,10.42
2022-09-20T18:29:53.899Z,10.37
2022-09-20T18:32:24.415Z,10.32
2022-09-20T18:34:54.788Z,10.29
2022-09-20T18:37:25.063Z,10.26
2022-09-20T18:39:55.767Z,10.22
2022-09-20T18:42:26.454Z,10.20
2022-09-20T18:44:56.716Z,10.17
2022-09-20T18:47:27.151Z,10.14
2022-09-20T18:49:57.528Z,10.10
2022-09-20T18:52:29.799Z,10.06
2022-09-20T18:55:00.411Z,10.03
2022-09-20T18:57:31.536Z,10.00
2022-09-20T19:00:03.995Z,9.97
2022-09-20T19:03:04.784Z,9.95
2022-09-20T19:05:44.144Z,9.89
2022-09-20T19:08:26.643Z,9.86
2022-09-20T19:11:02.316Z,9.82
2022-09-20T19:13:43.347Z,9.78
2022-09-20T19:16:20.811Z,9.74
2022-09-20T19:19:09.361Z,9.71
2022-09-20T19:21:47.472Z,9.67
2022-09-20T19:24:29.243Z,9.65
2022-09-20T19:27:07.310Z,9.62
2022-09-20T19:29:38.924Z,9.61
2022-09-20T19:32:16.399Z,9.58
2022-09-20T19:34:51.132Z,9.56
2022-09-20T19:37:31.090Z,9.53
2022-09-20T19:40:17.234Z,9.51
2022-09-20T19:43:03.418Z,9.49
2022-09-20T19:45:42.182Z,9.46
2022-09-20T19:48:18.355Z,9.44
2022-09-20T19:50:52.938Z,9.42
2022-09-20T19:53:27.630Z,9.40
2022-09-20T19:56:01.807Z,9.38
2022-09-20T19:58:33.027Z,9.36
2022-09-20T20:01:04.104Z,9.34
2022-09-20T20:03:35.801Z,9.33
2022-09-20T20:06:12.791Z,9.31
2022-09-20T20:08:45.827Z,9.29
2022-09-20T20:11:27.569Z,9.26
2022-09-20T20:14:07.213Z,9.24
2022-09-20T20:16:53.890Z,9.22
2022-09-20T20:19:39.991Z,9.20
2022-09-20T20:22:28.422Z,9.19
2022-09-20T20:24:59.666Z,9.17
2022-09-20T20:27:31.411Z,9.14
2022-09-20T20:30:01.757Z,9.11
2022-09-20T20:32:33.142Z,9.09
2022-09-20T20:35:03.421Z,9.08
2022-09-20T20:37:35.085Z,9.06
2022-09-20T20:40:06.246Z,9.06
2022-09-20T20:42:37.163Z,9.05
2022-09-20T20:45:10.448Z,9.04
2022-09-20T20:47:44.279Z,9.03
2022-09-20T20:50:15.083Z,9.01
2022-09-20T20:52:46.004Z,9.00
2022-09-20T20:55:17.411Z,8.98
2022-09-20T20:57:52.242Z,8.97
2022-09-20T21:00:22.849Z,8.96
2022-09-20T21:02:59.150Z,8.94
2022-09-20T21:05:30.122Z,8.91
2022-09-20T21:08:00.399Z,8.90
2022-09-20T21:10:30.803Z,8.89
2022-09-20T21:13:01.594Z,8.88
2022-09-20T21:15:31.997Z,8.87
2022-09-20T21:18:02.326Z,8.87
2022-09-20T21:20:32.675Z,8.86
2022-09-20T21:23:02.911Z,8.85
2022-09-20T21:25:33.220Z,8.83
2022-09-20T21:28:03.905Z,8.81
2022-09-20T21:30:34.192Z,8.80
2022-09-20T21:33:04.666Z,8.78
2022-09-20T21:35:34.914Z,8.77
2022-09-20T21:38:05.195Z,8.75
2022-09-20T21:40:35.908Z,8.73
2022-09-20T21:43:06.442Z,8.71
2022-09-20T21:45:40.335Z,8.68
2022-09-20T21:48:10.907Z,8.67
2022-09-20T21:50:41.134Z,8.65
2022-09-20T21:53:11.441Z,8.63
2022-09-20T21:55:41.761Z,8.60
2022-09-20T21:58:12.093Z,8.59
2022-09-20T22:00:43.292Z,8.57
2022-09-20T22:03:14.449Z,8.55
2022-09-20T22:05:44.750Z,8.52
2022-09-20T22:08:15.608Z,8.51
2022-09-20T22:10:55.390Z,8.49
2022-09-20T22:13:25.918Z,8.48
2022-09-20T22:16:03.261Z,8.46
2022-09-20T22:18:38.301Z,8.45
2022-09-20T22:21:12.090Z,8.42
2022-09-20T22:23:43.248Z,8.41
2022-09-20T22:26:15.657Z,8.41
2022-09-20T22:28:46.869Z,8.39
2022-09-20T22:31:18.690Z,8.37
2022-09-20T22:33:50.976Z,8.36
2022-09-20T22:36:23.174Z,8.35
2022-09-20T22:38:54.269Z,8.34
2022-09-20T22:41:25.163Z,8.33
2022-09-20T22:43:55.700Z,8.31
2022-09-20T22:46:28.211Z,8.31
2022-09-20T22:48:58.518Z,8.30
2022-09-20T22:51:30.789Z,8.29
2022-09-20T22:54:01.424Z,8.27
2022-09-20T22:56:32.414Z,8.25
2022-09-20T23:54:34.151Z,7.85
2022-09-20T23:57:04.579Z,7.84
2022-09-20T23:59:34.880Z,7.83
